Time;durP1;ratioP1;P1;durP2;ratioP2;P2;SDS_P1;SDS_P2;PMS_P1;PMS_P2;Temp;Humidity;BMP_temperature;BMP_pressure;BME280_temperature;BME280_humidity;BME280_pressure;Samples;Min_cycle;Max_cycle;Signal;HPM_P1;HPM_P2
2021/05/08 00:01:09;;;;;;;603.17;428.00;;;1.80;99.90;;;;;;5041172;28;20413;-69
2021/05/08 00:03:37;;;;;;;593.83;365.10;;;1.70;99.90;;;;;;5057176;28;20409;-70
2021/05/08 00:06:29;;;;;;;592.22;383.83;;;1.60;99.90;;;;;;5056966;28;20413;-69
2021/05/08 00:08:57;;;;;;;592.15;367.55;;;1.60;99.90;;;;;;5057108;28;20738;-69
2021/05/08 00:11:24;;;;;;;587.35;344.58;;;1.60;99.90;;;;;;5056944;28;20428;-67
2021/05/08 00:13:52;;;;;;;587.25;336.40;;;1.50;99.90;;;;;;5056729;28;20409;-67
2021/05/08 00:16:20;;;;;;;585.25;331.52;;;1.40;99.90;;;;;;5055499;28;20409;-67
2021/05/08 00:18:48;;;;;;;584.70;329.08;;;1.30;99.90;;;;;;5038930;28;20508;-67
2021/05/08 00:21:16;;;;;;;579.25;315.63;;;1.30;99.90;;;;;;5056829;28;20405;-67
2021/05/08 00:23:44;;;;;;;580.17;322.75;;;1.30;99.90;;;;;;5057432;28;20409;-68
2021/05/08 00:26:11;;;;;;;576.42;292.45;;;1.20;99.90;;;;;;5057003;28;20449;-67
2021/05/08 00:28:40;;;;;;;582.65;329.52;;;1.20;99.90;;;;;;5056466;28;20782;-67
2021/05/08 00:31:08;;;;;;;582.92;333.17;;;1.20;99.90;;;;;;5055531;28;20406;-67
2021/05/08 00:33:35;;;;;;;584.25;342.52;;;1.20;99.90;;;;;;5056571;28;20444;-67
2021/05/08 00:36:05;;;;;;;578.95;327.35;;;1.10;99.90;;;;;;5056653;28;20425;-70
2021/05/08 00:38:32;;;;;;;580.80;326.55;;;1.10;99.90;;;;;;5056859;28;20394;-67
2021/05/08 00:41:00;;;;;;;581.83;325.95;;;1.10;99.90;;;;;;5056442;28;20405;-67
2021/05/08 00:43:28;;;;;;;578.90;319.67;;;1.10;99.90;;;;;;5056712;28;20405;-69
2021/05/08 00:45:56;;;;;;;579.58;320.70;;;1.10;99.90;;;;;;5055748;28;20987;-67
2021/05/08 00:48:26;;;;;;;581.45;329.13;;;1.00;99.90;;;;;;5058472;28;20901;-67
2021/05/08 00:50:54;;;;;;;572.40;283.85;;;0.90;99.90;;;;;;5042318;28;20409;-67
2021/05/08 00:53:22;;;;;;;579.88;317.13;;;0.90;99.90;;;;;;5060346;28;20430;-67
2021/05/08 00:59:08;;;;;;;574.92;305.13;;;0.90;99.90;;;;;;5060972;28;20402;-67
2021/05/08 01:01:36;;;;;;;573.67;309.30;;;0.90;99.90;;;;;;5059244;28;20425;-72
2021/05/08 01:04:06;;;;;;;574.28;301.40;;;0.90;99.90;;;;;;5042710;28;20425;-67
2021/05/08 01:06:34;;;;;;;572.20;297.65;;;0.80;99.90;;;;;;5060182;28;20420;-67
2021/05/08 01:09:05;;;;;;;569.95;301.75;;;0.80;99.90;;;;;;5042006;28;20459;-67
2021/05/08 01:11:36;;;;;;;572.47;303.80;;;0.70;99.90;;;;;;5041505;28;20406;-66
2021/05/08 01:14:06;;;;;;;573.47;297.88;;;0.60;99.90;;;;;;5042665;28;20401;-66
2021/05/08 01:16:35;;;;;;;575.42;308.27;;;0.70;99.90;;;;;;5041461;28;20538;-69
2021/05/08 01:19:06;;;;;;;574.85;305.85;;;0.80;99.90;;;;;;5042335;28;20941;-66
2021/05/08 01:21:36;;;;;;;573.93;307.27;;;0.70;99.90;;;;;;5042639;28;20480;-69
2021/05/08 01:24:05;;;;;;;573.20;304.23;;;0.60;99.90;;;;;;5056853;28;20433;-70
2021/05/08 01:26:33;;;;;;;573.30;289.92;;;0.70;99.90;;;;;;5056233;28;20452;-67
2021/05/08 01:29:01;;;;;;;570.17;300.75;;;0.70;99.90;;;;;;5038504;28;20455;-67
2021/05/08 01:31:28;;;;;;;574.10;311.33;;;0.60;99.90;;;;;;5055350;28;20459;-68
2021/05/08 01:33:57;;;;;;;572.83;314.50;;;0.60;99.90;;;;;;5042506;28;20456;-69
2021/05/08 01:36:26;;;;;;;570.05;301.35;;;0.60;99.90;;;;;;5058943;28;20413;-71
2021/05/08 01:38:55;;;;;;;576.55;312.67;;;0.70;99.90;;;;;;5043351;28;20802;-66
2021/05/08 01:41:23;;;;;;;574.22;308.17;;;0.80;99.90;;;;;;5059447;28;20420;-69
2021/05/08 01:43:51;;;;;;;569.38;290.00;;;0.70;99.90;;;;;;5059552;28;20409;-68
2021/05/08 01:46:18;;;;;;;572.17;291.52;;;0.60;99.90;;;;;;5059376;28;20413;-69
2021/05/08 01:48:46;;;;;;;571.67;296.45;;;0.50;99.90;;;;;;5059881;28;20452;-67
2021/05/08 01:51:14;;;;;;;566.35;288.25;;;0.50;99.90;;;;;;5057309;28;20420;-67
2021/05/08 01:53:41;;;;;;;574.60;319.08;;;0.60;99.90;;;;;;5037371;28;20410;-68
2021/05/08 01:56:10;;;;;;;568.20;286.92;;;0.60;99.90;;;;;;5038460;28;20417;-67
2021/05/08 01:58:38;;;;;;;567.20;291.83;;;0.50;99.90;;;;;;5055906;28;20405;-67
2021/05/08 02:01:08;;;;;;;571.88;314.90;;;0.40;99.90;;;;;;5036277;28;20773;-67
2021/05/08 02:03:45;;;;;;;569.28;303.00;;;0.50;99.90;;;;;;5058900;28;20409;-67
2021/05/08 02:09:16;;;;;;;573.60;324.77;;;0.50;99.90;;;;;;5045503;28;20401;-64
2021/05/08 02:11:53;;;;;;;570.30;310.58;;;0.40;99.90;;;;;;5046421;28;20405;-65
2021/05/08 02:14:21;;;;;;;569.85;293.13;;;0.40;99.90;;;;;;5062363;28;20405;-66
2021/05/08 02:17:15;;;;;;;564.00;282.83;;;0.30;99.90;;;;;;5040863;28;20420;-70
2021/05/08 02:19:44;;;;;;;567.97;295.17;;;0.40;99.90;;;;;;5041405;28;20416;-67
2021/05/08 02:22:11;;;;;;;568.10;300.90;;;0.30;99.90;;;;;;5042198;28;20457;-67
2021/05/08 02:24:39;;;;;;;568.33;293.45;;;0.20;99.90;;;;;;5059207;28;20885;-70
2021/05/08 02:27:13;;;;;;;570.42;293.45;;;0.20;99.90;;;;;;5041317;28;20440;-66
2021/05/08 02:29:42;;;;;;;570.33;296.77;;;0.20;99.90;;;;;;5044356;28;20405;-66
2021/05/08 02:32:10;;;;;;;572.63;315.60;;;0.20;99.90;;;;;;5060406;28;20884;-67
2021/05/08 02:34:37;;;;;;;568.92;293.58;;;0.20;99.90;;;;;;5057220;28;20414;-66
2021/05/08 02:37:05;;;;;;;575.88;333.83;;;0.20;99.90;;;;;;5038762;28;20405;-69
2021/05/08 02:39:35;;;;;;;570.65;302.70;;;0.20;99.90;;;;;;5056588;28;20943;-66
2021/05/08 02:42:04;;;;;;;574.72;312.27;;;0.20;99.90;;;;;;5054545;28;20492;-67
2021/05/08 02:44:32;;;;;;;570.08;290.02;;;0.20;99.90;;;;;;5037938;28;20512;-67
2021/05/08 02:47:03;;;;;;;570.38;310.05;;;0.20;99.90;;;;;;5037554;28;20765;-67
2021/05/08 02:49:31;;;;;;;562.05;275.27;;;0.20;99.90;;;;;;5056303;28;20924;-67
2021/05/08 02:51:58;;;;;;;571.50;311.63;;;0.20;99.90;;;;;;5037640;28;20413;-69
2021/05/08 02:54:25;;;;;;;566.17;290.80;;;0.20;99.90;;;;;;5057037;28;20417;-66
2021/05/08 02:56:53;;;;;;;567.53;294.40;;;0.20;99.90;;;;;;5039178;28;20496;-67
2021/05/08 02:59:20;;;;;;;567.22;293.58;;;0.10;99.90;;;;;;5057459;28;20421;-67
2021/05/08 03:01:49;;;;;;;561.67;272.00;;;0.10;99.90;;;;;;5056400;28;20499;-66
2021/05/08 03:04:17;;;;;;;573.08;324.70;;;0.10;99.90;;;;;;5040429;28;20417;-69
2021/05/08 03:06:45;;;;;;;569.73;296.20;;;0.10;99.90;;;;;;5057403;28;20410;-67
2021/05/08 03:09:13;;;;;;;563.53;288.08;;;0.10;99.90;;;;;;5059730;28;20428;-68
2021/05/08 03:11:41;;;;;;;559.90;276.23;;;0.10;99.90;;;;;;5042597;28;20523;-67
2021/05/08 03:14:09;;;;;;;559.67;275.43;;;0.20;99.90;;;;;;5060285;28;20459;-67
2021/05/08 03:16:41;;;;;;;556.60;267.83;;;0.10;99.90;;;;;;5057976;28;20410;-66
2021/05/08 03:19:28;;;;;;;560.50;282.05;;;0.00;99.90;;;;;;5043263;28;20412;-67
2021/05/08 03:21:56;;;;;;;563.50;282.27;;;0.00;99.90;;;;;;5062272;28;20440;-67
2021/05/08 03:24:24;;;;;;;569.38;304.42;;;0.00;99.90;;;;;;5044096;28;20437;-70
2021/05/08 03:26:52;;;;;;;570.42;309.98;;;0.10;99.90;;;;;;5043527;28;20855;-67
2021/05/08 03:29:19;;;;;;;573.22;315.08;;;0.20;99.90;;;;;;5044342;28;20409;-66
2021/05/08 03:31:47;;;;;;;571.72;297.40;;;0.10;99.90;;;;;;5058895;28;20417;-66
2021/05/08 03:34:15;;;;;;;571.78;300.05;;;0.10;99.90;;;;;;5062284;28;20456;-66
2021/05/08 03:36:44;;;;;;;565.78;281.73;;;0.10;99.90;;;;;;5060707;28;20421;-69
2021/05/08 03:39:12;;;;;;;567.97;278.77;;;0.00;99.90;;;;;;5061834;28;20417;-68
2021/05/08 03:41:39;;;;;;;573.72;295.10;;;0.10;99.90;;;;;;5060288;28;20413;-66
2021/05/08 03:44:07;;;;;;;575.65;280.88;;;0.10;99.90;;;;;;5062183;28;20409;-68
2021/05/08 03:46:34;;;;;;;578.10;291.92;;;0.10;99.90;;;;;;5057163;28;20421;-66
2021/05/08 03:49:03;;;;;;;569.05;265.95;;;0.10;99.90;;;;;;5039404;28;20410;-70
2021/05/08 03:51:31;;;;;;;568.08;269.52;;;0.10;99.90;;;;;;5057438;28;20757;-68
2021/05/08 03:53:59;;;;;;;565.55;245.55;;;0.10;99.90;;;;;;5056832;28;20475;-68
2021/05/08 03:56:29;;;;;;;569.63;256.73;;;0.10;99.90;;;;;;5058794;28;20831;-67
2021/05/08 03:58:57;;;;;;;573.70;271.30;;;0.20;99.90;;;;;;5061227;28;20417;-66
2021/05/08 04:01:24;;;;;;;580.78;303.23;;;0.20;99.90;;;;;;5058331;28;20765;-68
2021/05/08 04:03:52;;;;;;;581.25;314.20;;;0.30;99.90;;;;;;5059560;28;21050;-69
2021/05/08 04:09:12;;;;;;;577.97;290.80;;;0.30;99.90;;;;;;5059231;28;20417;-67
2021/05/08 04:11:40;;;;;;;583.50;305.00;;;0.40;99.90;;;;;;5059361;28;20417;-67
2021/05/08 04:14:08;;;;;;;577.73;256.30;;;0.40;99.90;;;;;;5059584;28;20405;-66
2021/05/08 04:16:36;;;;;;;579.03;280.67;;;0.50;99.90;;;;;;5058972;28;20505;-65
2021/05/08 04:19:03;;;;;;;577.20;274.65;;;0.60;99.90;;;;;;5058522;28;20417;-68
2021/05/08 04:21:32;;;;;;;592.63;338.50;;;0.60;99.90;;;;;;5060910;28;20445;-67
2021/05/08 04:23:59;;;;;;;586.80;312.13;;;0.60;99.90;;;;;;5060593;28;20406;-67
2021/05/08 04:26:28;;;;;;;586.90;303.48;;;0.60;99.90;;;;;;5059902;28;20440;-71
2021/05/08 04:29:03;;;;;;;590.43;323.90;;;0.70;99.90;;;;;;5059802;28;20413;-66
2021/05/08 04:31:33;;;;;;;591.20;313.42;;;0.90;99.90;;;;;;5059799;28;20416;-67
2021/05/08 04:34:01;;;;;;;590.80;311.70;;;0.90;99.90;;;;;;5060986;28;20413;-67
2021/05/08 04:36:29;;;;;;;588.97;306.85;;;1.00;99.90;;;;;;5061388;28;20409;-67
2021/05/08 04:38:57;;;;;;;596.22;329.65;;;1.10;99.90;;;;;;5060689;28;20403;-67
2021/05/08 04:41:25;;;;;;;598.28;332.58;;;1.30;99.90;;;;;;5058321;28;20460;-67
2021/05/08 04:43:53;;;;;;;601.15;337.35;;;1.50;99.90;;;;;;5056726;28;20406;-70
2021/05/08 04:46:23;;;;;;;598.78;331.60;;;1.60;99.90;;;;;;5056340;28;20417;-65
2021/05/08 04:48:53;;;;;;;596.40;317.63;;;1.70;99.90;;;;;;5057751;28;20430;-67
2021/05/08 04:51:21;;;;;;;601.33;336.47;;;1.70;99.90;;;;;;5057641;28;20523;-65
2021/05/08 04:53:49;;;;;;;604.25;334.92;;;1.80;99.90;;;;;;5057124;28;20971;-67
2021/05/08 04:56:17;;;;;;;612.38;376.95;;;1.90;99.90;;;;;;5056973;28;20407;-68
2021/05/08 04:58:44;;;;;;;614.25;380.73;;;2.10;99.90;;;;;;5057407;28;20512;-67
2021/05/08 05:01:13;;;;;;;618.25;374.45;;;2.30;99.90;;;;;;5055897;28;20426;-68
2021/05/08 05:03:42;;;;;;;630.25;449.88;;;2.40;99.90;;;;;;5056795;28;20420;-67
2021/05/08 05:09:02;;;;;;;632.63;465.38;;;2.70;99.90;;;;;;5055570;28;20417;-67
2021/05/08 05:11:29;;;;;;;635.40;474.95;;;3.00;99.90;;;;;;5056108;28;20409;-66
2021/05/08 05:13:57;;;;;;;639.80;482.48;;;3.10;99.90;;;;;;5054649;28;20409;-65
2021/05/08 05:16:26;;;;;;;642.50;502.38;;;3.30;99.90;;;;;;5054003;28;20451;-67
2021/05/08 05:18:54;;;;;;;646.35;519.38;;;3.50;99.90;;;;;;5055871;28;20405;-66
2021/05/08 05:24:14;;;;;;;645.85;507.30;;;3.70;99.90;;;;;;5056627;28;20407;-66
2021/05/08 05:26:41;;;;;;;673.05;599.40;;;3.90;99.90;;;;;;5054469;28;20491;-66
2021/05/08 05:29:10;;;;;;;649.90;510.65;;;4.10;99.90;;;;;;5053322;28;20439;-66
2021/05/08 05:31:39;;;;;;;659.85;553.53;;;4.30;99.90;;;;;;5053395;28;20412;-68
2021/05/08 05:34:06;;;;;;;660.33;549.17;;;4.50;99.90;;;;;;5054054;28;20482;-66
2021/05/08 05:36:34;;;;;;;668.43;573.80;;;4.70;99.90;;;;;;5054044;28;20919;-66
2021/05/08 05:39:03;;;;;;;663.83;573.42;;;4.90;99.90;;;;;;5056952;28;20459;-67
2021/05/08 05:41:32;;;;;;;662.58;564.47;;;4.90;99.90;;;;;;5057296;28;20412;-68
2021/05/08 05:44:01;;;;;;;673.03;598.63;;;4.90;99.90;;;;;;5057018;28;20412;-66
2021/05/08 05:46:30;;;;;;;669.25;591.28;;;5.00;99.90;;;;;;5056966;28;20734;-66
2021/05/08 05:48:58;;;;;;;677.08;602.58;;;5.20;99.90;;;;;;5057942;28;20905;-66
2021/05/08 05:51:27;;;;;;;683.40;608.80;;;5.40;99.90;;;;;;5058574;28;20492;-68
2021/05/08 05:53:56;;;;;;;665.40;571.10;;;5.60;99.90;;;;;;5057440;28;20397;-67
2021/05/08 05:56:30;;;;;;;684.33;609.30;;;5.80;99.90;;;;;;5056744;28;20413;-69
2021/05/08 05:58:58;;;;;;;670.80;587.33;;;6.00;99.90;;;;;;5039405;28;20421;-68
2021/05/08 06:01:25;;;;;;;714.85;639.35;;;6.30;99.90;;;;;;5055275;28;20409;-67
2021/05/08 06:03:53;;;;;;;688.85;613.60;;;6.70;99.90;;;;;;5056199;28;20405;-67
2021/05/08 06:09:14;;;;;;;671.35;589.38;;;6.70;99.90;;;;;;5057631;28;20409;-67
2021/05/08 06:11:41;;;;;;;718.70;642.70;;;6.80;99.90;;;;;;5057183;28;20444;-67
2021/05/08 06:14:08;;;;;;;765.07;687.73;;;7.00;99.90;;;;;;5057288;28;20521;-67
2021/05/08 06:16:36;;;;;;;770.83;693.78;;;7.40;99.90;;;;;;5055956;28;20409;-67
2021/05/08 06:19:04;;;;;;;800.13;722.15;;;7.60;99.90;;;;;;5056109;28;21152;-67
2021/05/08 06:21:32;;;;;;;825.60;747.13;;;8.10;99.90;;;;;;5057102;28;20500;-67
2021/05/08 06:24:00;;;;;;;849.42;770.22;;;8.60;99.90;;;;;;5056603;28;20412;-67
2021/05/08 06:26:27;;;;;;;791.67;713.78;;;9.50;98.40;;;;;;5056440;28;20793;-67
2021/05/08 06:31:47;;;;;;;905.08;824.05;;;10.80;93.40;;;;;;5054809;28;20409;-69
2021/05/08 06:34:14;;;;;;;884.43;803.83;;;11.90;91.70;;;;;;5055320;28;20412;-67
2021/05/08 06:36:42;;;;;;;845.50;765.92;;;13.00;87.20;;;;;;5056067;28;20451;-67
2021/05/08 06:39:10;;;;;;;963.28;880.38;;;13.60;83.70;;;;;;5055004;28;20504;-67
2021/05/08 06:41:37;;;;;;;942.72;860.47;;;13.40;75.80;;;;;;5054708;28;20405;-67
2021/05/08 06:44:05;;;;;;;900.90;819.78;;;13.40;74.20;;;;;;5054676;28;20799;-66
2021/05/08 06:46:32;;;;;;;972.33;888.75;;;14.10;74.70;;;;;;5054348;28;20504;-68
2021/05/08 06:48:59;;;;;;;975.58;891.95;;;15.10;74.10;;;;;;5055539;28;20401;-67
2021/05/08 06:51:28;;;;;;;978.42;894.38;;;15.50;66.90;;;;;;5056416;28;20409;-66
2021/05/08 06:53:56;;;;;;;1002.63;917.53;;;15.40;67.40;;;;;;5056230;28;20429;-67
2021/05/08 06:56:31;;;;;;;1059.00;971.83;;;15.10;64.10;;;;;;5055527;28;20421;-67
2021/05/08 06:58:58;;;;;;;1047.65;961.13;;;15.60;64.20;;;;;;5055832;28;20894;-66
2021/05/08 07:01:26;;;;;;;1046.15;959.45;;;16.80;60.80;;;;;;5054537;28;20488;-67
2021/05/08 07:03:53;;;;;;;1066.20;978.70;;;17.20;58.30;;;;;;5056992;28;20445;-66
2021/05/08 07:09:18;;;;;;;1087.40;999.20;;;20.00;54.10;;;;;;5057226;28;20405;-66
2021/05/08 07:11:46;;;;;;;1096.53;999.90;;;17.90;51.10;;;;;;5057158;28;20964;-66
2021/05/08 07:14:14;;;;;;;1106.65;999.90;;;18.60;53.40;;;;;;5036809;28;20817;-66
2021/05/08 07:16:42;;;;;;;1115.00;999.90;;;19.40;50.40;;;;;;5053167;28;20430;-66
2021/05/08 07:19:10;;;;;;;1127.78;999.90;;;18.80;49.60;;;;;;5054923;28;20417;-66
2021/05/08 07:21:38;;;;;;;1145.88;999.90;;;19.50;51.30;;;;;;5055649;28;20431;-66
2021/05/08 07:24:07;;;;;;;1146.03;999.90;;;20.60;49.40;;;;;;5056688;28;20402;-65
2021/05/08 07:26:35;;;;;;;1150.90;999.90;;;19.50;47.50;;;;;;5056326;28;20413;-66
2021/05/08 07:29:03;;;;;;;1162.25;999.90;;;18.90;48.50;;;;;;5056656;28;20491;-65
2021/05/08 07:31:32;;;;;;;1171.68;999.90;;;20.70;47.30;;;;;;5055401;28;20895;-68
2021/05/08 07:34:01;;;;;;;1169.70;999.90;;;19.10;45.50;;;;;;5056630;28;20787;-64
2021/05/08 07:36:29;;;;;;;1163.13;999.90;;;18.80;48.30;;;;;;5056499;28;20409;-66
2021/05/08 07:38:56;;;;;;;1161.83;999.90;;;18.50;48.40;;;;;;5056452;28;20409;-66
2021/05/08 07:41:24;;;;;;;1153.38;999.90;;;18.40;45.80;;;;;;5056156;28;20899;-66
2021/05/08 07:43:52;;;;;;;1184.85;999.90;;;19.80;47.00;;;;;;5057125;28;20406;-66
2021/05/08 07:46:20;;;;;;;1209.45;999.90;;;21.60;44.70;;;;;;5037238;28;20433;-66
2021/05/08 07:48:48;;;;;;;1213.65;999.90;;;24.90;40.80;;;;;;5056242;28;20761;-67
2021/05/08 07:51:15;;;;;;;1218.97;999.90;;;21.50;39.90;;;;;;5038108;28;20431;-66
2021/05/08 07:53:42;;;;;;;1217.70;999.90;;;19.20;41.80;;;;;;5056522;28;20413;-67
2021/05/08 07:56:11;;;;;;;1211.68;999.90;;;20.40;44.00;;;;;;5056182;28;20447;-65
2021/05/08 07:58:39;;;;;;;1234.85;999.90;;;21.00;44.70;;;;;;5056107;28;20393;-65
2021/05/08 08:01:07;;;;;;;1221.13;999.90;;;20.20;42.30;;;;;;5054503;28;20420;-65
2021/05/08 08:03:35;;;;;;;1217.70;999.90;;;22.30;41.90;;;;;;5056791;28;20766;-66
2021/05/08 08:06:03;;;;;;;1232.72;999.90;;;24.00;38.30;;;;;;5056108;28;20828;-64
2021/05/08 08:08:31;;;;;;;1233.17;999.90;;;21.70;37.70;;;;;;5056342;28;20505;-65
2021/05/08 08:10:59;;;;;;;1255.50;999.90;;;23.20;39.70;;;;;;5038346;28;20500;-65
2021/05/08 08:13:27;;;;;;;1261.90;999.90;;;23.80;36.70;;;;;;5056056;28;20406;-66
2021/05/08 08:15:54;;;;;;;1256.43;999.90;;;23.50;37.60;;;;;;5054735;28;20422;-66
2021/05/08 08:18:25;;;;;;;1242.90;999.90;;;23.50;36.50;;;;;;5056225;28;20418;-65
2021/05/08 08:20:53;;;;;;;1228.50;999.90;;;19.90;38.90;;;;;;5056829;28;20405;-65
2021/05/08 08:23:21;;;;;;;1238.82;999.90;;;20.70;41.90;;;;;;5057187;28;20414;-71
2021/05/08 08:25:50;;;;;;;1224.85;999.90;;;21.30;39.90;;;;;;5056912;28;20508;-66
2021/05/08 08:28:17;;;;;;;1238.90;999.90;;;20.90;40.20;;;;;;5057137;28;20615;-65
2021/05/08 08:30:45;;;;;;;1243.97;999.90;;;21.40;39.70;;;;;;5055346;28;20414;-63
2021/05/08 08:33:13;;;;;;;1244.70;999.90;;;21.00;39.70;;;;;;5057216;28;20416;-64
2021/05/08 08:35:41;;;;;;;1267.03;999.90;;;21.50;39.40;;;;;;5056067;28;20414;-64
2021/05/08 08:38:09;;;;;;;1266.03;999.90;;;22.30;38.80;;;;;;5055654;28;20758;-64
2021/05/08 08:40:37;;;;;;;1255.10;999.90;;;25.00;34.80;;;;;;5055511;28;20493;-65
2021/05/08 08:43:05;;;;;;;1264.10;999.90;;;23.60;33.60;;;;;;5056941;28;20412;-65
2021/05/08 08:45:34;;;;;;;1266.05;999.90;;;23.10;34.20;;;;;;5038574;28;20405;-65
2021/05/08 08:48:02;;;;;;;1264.45;999.90;;;22.60;35.00;;;;;;5056817;28;20762;-68
2021/05/08 08:50:34;;;;;;;1254.18;999.90;;;21.00;36.40;;;;;;5060497;28;20425;-65
2021/05/08 08:53:04;;;;;;;1267.65;999.90;;;21.30;39.30;;;;;;5055994;28;20410;-66
2021/05/08 08:55:35;;;;;;;1273.38;999.90;;;23.40;36.00;;;;;;5054908;28;20409;-65
2021/05/08 08:58:44;;;;;;;1262.15;999.90;;;22.20;34.20;;;;;;5051666;28;20424;-65
2021/05/08 09:01:14;;;;;;;1293.03;999.90;;;21.60;37.10;;;;;;5045718;28;20796;-68
2021/05/08 09:03:42;;;;;;;1293.05;999.90;;;24.20;35.20;;;;;;5050423;28;20418;-64
2021/05/08 09:06:10;;;;;;;1299.43;999.90;;;25.00;31.90;;;;;;5050695;28;20445;-64
2021/05/08 09:08:39;;;;;;;1294.00;999.90;;;23.80;32.20;;;;;;5066684;22;20444;-68
2021/05/08 09:11:25;;;;;;;1294.33;999.90;;;23.50;32.30;;;;;;5052610;28;20427;-70
2021/05/08 09:14:15;;;;;;;1310.22;999.90;;;23.90;33.40;;;;;;5054751;28;20476;-73
2021/05/08 09:17:09;;;;;;;1102.73;999.90;;;24.70;33.20;;;;;;5041678;28;20278;-74
2021/05/08 09:19:38;;;;;;;1063.70;977.03;;;22.80;35.30;;;;;;5017791;28;20446;-71
2021/05/08 09:22:29;;;;;;;1040.70;954.53;;;23.80;35.20;;;;;;5017970;28;20435;-70
2021/05/08 09:27:57;;;;;;;971.33;888.23;;;21.60;36.10;;;;;;5036526;28;20502;-70
2021/05/08 09:30:27;;;;;;;1209.78;999.90;;;21.40;39.00;;;;;;5015002;28;20429;-71
2021/05/08 09:36:03;;;;;;;1204.20;999.90;;;21.70;36.10;;;;;;5016131;28;20426;-70
2021/05/08 09:38:35;;;;;;;;;;;18.90;38.60;;;;;;5016334;28;20430;-70
2021/05/08 09:41:06;;;;;;;926.87;845.10;;;18.60;40.30;;;;;;5035572;28;20338;-70
2021/05/08 09:43:34;;;;;;;907.80;826.00;;;18.20;40.80;;;;;;5034344;28;20941;-70
2021/05/08 09:46:02;;;;;;;912.27;829.17;;;19.60;39.80;;;;;;5033275;28;20544;-70
2021/05/08 09:48:31;;;;;;;956.30;873.70;;;20.60;38.50;;;;;;5052400;28;20560;-70
2021/05/08 09:51:28;;;;;;;1182.72;999.90;;;22.20;36.90;;;;;;5037743;28;20421;-70
2021/05/08 09:54:12;;;;;;;1218.43;999.90;;;20.90;35.50;;;;;;5017954;28;20431;-72
2021/05/08 09:56:42;;;;;;;1243.03;999.90;;;21.70;37.70;;;;;;5032454;28;20477;-70
2021/05/08 09:59:37;;;;;;;1233.72;999.90;;;20.80;36.30;;;;;;5038640;28;20464;-70
2021/05/08 10:02:30;;;;;;;1228.78;999.90;;;19.50;36.50;;;;;;5047033;28;20421;-71
2021/05/08 10:05:12;;;;;;;1221.55;999.90;;;20.00;37.90;;;;;;5051835;28;20425;-71
2021/05/08 10:07:40;;;;;;;1214.35;999.90;;;20.50;38.50;;;;;;5034709;28;20413;-71
2021/05/08 10:10:10;;;;;;;1240.43;999.90;;;21.50;37.90;;;;;;5051963;28;20417;-70
2021/05/08 10:12:38;;;;;;;1252.95;999.90;;;21.80;36.90;;;;;;5052691;28;20410;-71
2021/05/08 10:15:07;;;;;;;1280.05;999.90;;;22.80;36.20;;;;;;5050525;28;20414;-70
2021/05/08 10:18:03;;;;;;;1256.00;999.90;;;23.40;34.10;;;;;;5032871;28;20490;-70
2021/05/08 10:20:32;;;;;;;1250.65;999.90;;;20.60;36.10;;;;;;5033248;28;20403;-70
2021/05/08 10:23:06;;;;;;;1230.95;999.90;;;19.00;37.60;;;;;;5033376;28;20443;-73
2021/05/08 10:28:29;;;;;;;;;;;18.60;41.70;;;;;;5036763;28;20276;-69
2021/05/08 10:30:56;;;;;;;;;;;19.30;41.60;;;;;;5037176;28;19928;-71
2021/05/08 10:33:24;;;;;;;;;;;19.40;38.60;;;;;;5038289;28;19925;-71
2021/05/08 10:35:52;;;;;;;918.00;836.00;;;20.70;37.20;;;;;;5020048;28;20199;-69
2021/05/08 10:38:23;;;;;;;1168.55;999.90;;;21.80;35.90;;;;;;5036486;28;20898;-71
2021/05/08 10:40:56;;;;;;;1190.25;999.90;;;21.40;36.00;;;;;;5018906;28;20411;-70
2021/05/08 10:43:54;;;;;;;1216.68;999.90;;;20.60;35.10;;;;;;5018854;28;20441;-71
2021/05/08 10:46:23;;;;;;;1024.23;938.67;;;21.20;35.50;;;;;;5020025;28;20255;-72
2021/05/08 10:49:17;;;;;;;1244.93;999.90;;;22.50;35.90;;;;;;5038089;28;20918;-71
2021/05/08 10:51:58;;;;;;;1266.88;999.90;;;21.70;35.20;;;;;;5018607;28;20802;-71
2021/05/08 10:54:52;;;;;;;1313.00;999.90;;;22.90;35.70;;;;;;5002243;28;20462;-72
2021/05/08 10:57:22;;;;;;;1321.05;999.90;;;24.40;34.00;;;;;;5035735;28;20488;-71
2021/05/08 11:00:27;;;;;;;1306.20;999.90;;;24.70;32.20;;;;;;5035523;28;20413;-73
2021/05/08 11:03:03;;;;;;;1305.85;999.90;;;21.30;35.30;;;;;;5035513;28;20411;-70
2021/05/08 11:05:49;;;;;;;1287.47;999.90;;;21.90;36.10;;;;;;5051085;28;20446;-70
2021/05/08 11:08:43;;;;;;;1253.97;999.90;;;18.80;38.10;;;;;;5035524;28;20918;-69
2021/05/08 11:11:13;;;;;;;980.50;896.20;;;17.40;42.80;;;;;;5037052;28;20192;-70
2021/05/08 11:13:56;;;;;;;1152.93;999.90;;;17.50;43.60;;;;;;5035204;28;20419;-71
2021/05/08 11:16:28;;;;;;;1166.80;999.90;;;17.50;43.30;;;;;;5045814;28;20537;-73
2021/05/08 11:18:57;;;;;;;1188.00;999.90;;;17.90;43.20;;;;;;5054370;28;20903;-71
2021/05/08 11:21:46;;;;;;;1184.88;999.90;;;18.30;41.50;;;;;;5037387;28;20940;-71
2021/05/08 11:24:33;;;;;;;1177.45;999.90;;;18.50;41.80;;;;;;5031955;28;20409;-71
2021/05/08 11:27:01;;;;;;;1172.32;999.90;;;17.90;42.40;;;;;;5053774;28;20417;-71
2021/05/08 11:29:30;;;;;;;1191.35;999.90;;;18.00;42.30;;;;;;5020683;28;20409;-73
2021/05/08 11:32:01;;;;;;;972.23;894.53;;;19.10;40.90;;;;;;5038060;28;20228;-71
2021/05/08 11:34:30;;;;;;;1157.47;999.90;;;19.40;40.50;;;;;;5054534;28;20416;-70
2021/05/08 11:36:59;;;;;;;1167.50;999.90;;;18.20;41.60;;;;;;5037205;28;20455;-71
2021/05/08 11:39:28;;;;;;;1153.28;999.90;;;17.40;42.30;;;;;;5036507;28;20418;-71
2021/05/08 11:41:58;;;;;;;907.70;826.10;;;18.10;42.00;;;;;;5056097;28;20208;-71
2021/05/08 11:44:28;;;;;;;1116.30;999.90;;;16.90;42.60;;;;;;5054523;28;20742;-73
2021/05/08 11:46:58;;;;;;;1150.15;999.90;;;17.10;43.50;;;;;;5052018;28;20431;-72
2021/05/08 11:49:31;;;;;;;1142.10;999.90;;;18.00;42.70;;;;;;5054223;28;20408;-70
2021/05/08 11:52:00;;;;;;;903.97;822.57;;;17.60;43.40;;;;;;5037482;28;20620;-73
2021/05/08 11:54:30;;;;;;;1124.80;999.90;;;17.70;42.60;;;;;;5054340;28;20492;-70
2021/05/08 11:57:00;;;;;;;1152.40;999.90;;;17.10;43.90;;;;;;5036939;28;20504;-70
2021/05/08 11:59:35;;;;;;;1152.03;999.90;;;17.20;43.10;;;;;;5054207;28;20441;-70
2021/05/08 12:02:17;;;;;;;902.80;821.30;;;16.70;43.40;;;;;;5049945;28;20497;-70
2021/05/08 12:04:47;;;;;;;1128.78;999.90;;;17.40;43.40;;;;;;5036774;28;20413;-70
2021/05/08 12:07:19;;;;;;;914.40;834.23;;;17.90;43.80;;;;;;5055999;28;20192;-70
2021/05/08 12:09:47;;;;;;;1144.88;999.90;;;17.80;43.00;;;;;;5052571;28;20432;-71
2021/05/08 12:12:15;;;;;;;924.13;844.53;;;18.30;42.40;;;;;;5054687;28;20195;-72
2021/05/08 12:14:43;;;;;;;1147.07;999.90;;;18.00;42.90;;;;;;5036532;28;20492;-71
2021/05/08 12:17:11;;;;;;;1159.75;999.90;;;18.10;43.30;;;;;;5052911;28;20421;-71
2021/05/08 12:19:43;;;;;;;1180.72;999.90;;;17.60;43.80;;;;;;5036370;28;20765;-70
2021/05/08 12:22:13;;;;;;;1185.07;999.90;;;18.60;42.80;;;;;;5052928;28;20401;-71
2021/05/08 12:24:40;;;;;;;1179.50;999.90;;;18.30;39.80;;;;;;5035720;28;20781;-70
2021/05/08 12:27:16;;;;;;;952.90;869.13;;;18.90;41.30;;;;;;5037266;28;20207;-70
2021/05/08 12:29:55;;;;;;;1157.20;999.90;;;18.80;42.20;;;;;;5054056;28;20774;-70
2021/05/08 12:32:24;;;;;;;930.73;847.43;;;17.80;42.50;;;;;;5037407;28;20811;-70
2021/05/08 12:34:55;;;;;;;1165.87;999.90;;;18.20;43.00;;;;;;5053878;28;20492;-71
2021/05/08 12:37:23;;;;;;;1188.68;999.90;;;18.50;42.60;;;;;;5052375;28;20511;-71
2021/05/08 12:39:56;;;;;;;947.03;864.47;;;19.20;41.30;;;;;;5054443;28;20249;-71
2021/05/08 12:42:40;;;;;;;1148.40;999.90;;;18.70;42.30;;;;;;5035952;28;20417;-73
2021/05/08 12:45:09;;;;;;;1173.72;999.90;;;18.10;43.50;;;;;;5050789;28;20496;-71
2021/05/08 12:47:40;;;;;;;1193.07;999.90;;;18.40;42.40;;;;;;5035158;28;20438;-72
2021/05/08 12:50:13;;;;;;;1190.72;999.90;;;19.20;40.80;;;;;;5039611;28;20418;-70
2021/05/08 12:52:44;;;;;;;1186.07;999.90;;;19.10;40.70;;;;;;5016111;28;20421;-71
2021/05/08 12:55:33;;;;;;;1174.83;999.90;;;18.70;41.30;;;;;;5033607;28;20824;-72
2021/05/08 12:58:08;;;;;;;1173.32;999.90;;;17.90;40.30;;;;;;5029326;28;20488;-71
2021/05/08 13:00:40;;;;;;;1190.05;999.90;;;18.50;39.90;;;;;;5014278;28;20847;-70